Anamoose, North Dakota
Current Conditions -  °F | °C
As of 1:55 PM on Wednesday 28 Jan 2015 (Local Time) from K5H4 Reporting Station
Haze Haze  
Wind Chill: 22°   Ceiling: 200
Heat Index: 32°   Visibility: 1.5mi
Dew Point: 32°   Wind: 15mph
Humidity: 100%   Direction: 340°NNW
Pressure: 29.83"   Gusts: NA
Location:  47.88°N, 100.24°W
Report Text: K5H4 281955Z AUTO 34013KT 1 1/2SM BR OVC002 00/00 A2983 RMK AO2
Loading
Personal Weather Stations






























Interactive Weather Map New forecast layout! Learn more

10-Day Weather Forecast

Advertisements
Track Severe Weather on mobile